Terminal Aerodrome Forecast
Issued by NWS Blacksburg, VA

Home | Current Version | Previous Version | Text Only | Print | Product List | Glossary On
Versions: 1 2 3 4 5 6 7 8 9 10 11 12 13 14 15 16 17 18 19 20 21 22 23 24 25 26 27 28 29 30 31 32 33 34 35
000
FTUS41 KRNK 260304 AAD
TAFROA
TAF AMD
KROA 260304Z 2603/2624 11006KT 5SM -SHRA BR BKN006 OVC012
     FM260700 06008KT 3SM -SHRA OVC007
     FM261000 05003KT 2SM BR OVC003
     FM261500 02006KT P6SM SCT007 OVC015
     FM262200 35007KT P6SM BKN025=

USA.gov is the U.S. government's official web portal to all federal, state and local government web resources and services.